createdAt,value
2023-04-24T00:13:48.474Z,0.00
2023-04-24T00:28:49.039Z,0.00
2023-04-24T00:43:49.078Z,0.00
2023-04-24T00:58:49.216Z,0.00
2023-04-24T01:13:49.698Z,0.00
2023-04-24T01:28:50.381Z,0.00
2023-04-24T01:43:50.553Z,0.00
2023-04-24T01:58:50.487Z,0.00
2023-04-24T02:13:50.628Z,0.00
2023-04-24T02:28:50.829Z,0.00
2023-04-24T02:43:50.966Z,0.00
2023-04-24T02:58:51.265Z,0.00
2023-04-24T03:13:51.732Z,0.00
2023-04-24T03:28:52.436Z,0.00
2023-04-24T03:43:52.380Z,12.00
2023-04-24T03:58:52.726Z,80.00
2023-04-24T04:13:52.594Z,284.00
2023-04-24T04:28:52.739Z,836.00
2023-04-24T04:43:52.763Z,2300.00
2023-04-24T04:58:53.128Z,3928.00
2023-04-24T05:13:53.345Z,3776.00
2023-04-24T05:28:53.342Z,3260.00
2023-04-24T05:43:53.596Z,5072.00
2023-04-24T05:58:54.004Z,7692.00
2023-04-24T06:13:53.996Z,8732.00
2023-04-24T06:28:53.957Z,10996.00
2023-04-24T06:43:54.262Z,6232.00
2023-04-24T06:58:54.651Z,6644.00
2023-04-24T07:13:54.882Z,7952.00
2023-04-24T07:28:55.039Z,12688.00
2023-04-24T07:43:54.989Z,12560.00
2023-04-24T07:58:55.143Z,10664.00
2023-04-24T08:13:55.246Z,10664.00
2023-04-24T08:28:55.360Z,13948.00
2023-04-24T08:43:55.479Z,13568.00
2023-04-24T08:58:55.858Z,14416.00
2023-04-24T09:13:55.980Z,19200.00
2023-04-24T09:28:56.355Z,16576.00
2023-04-24T09:43:56.610Z,19904.00
2023-04-24T09:58:57.050Z,12040.00
2023-04-24T10:13:57.444Z,16864.00
2023-04-24T10:28:57.225Z,5588.00
2023-04-24T10:43:57.369Z,14124.00
2023-04-24T10:58:57.725Z,18240.00
2023-04-24T11:13:57.985Z,4720.00
2023-04-24T11:43:58.412Z,17408.00
2023-04-24T11:58:58.497Z,13796.00
2023-04-24T12:13:58.757Z,36032.00
2023-04-24T12:28:58.899Z,10188.00
2023-04-24T12:43:59.001Z,13860.00
2023-04-24T12:58:59.148Z,18336.00
2023-04-24T13:14:00.499Z,19328.00
2023-04-24T13:29:00.859Z,89344.00
2023-04-24T13:44:01.032Z,92032.00
2023-04-24T13:59:00.999Z,74304.00
2023-04-24T14:14:01.386Z,58720.00
2023-04-24T14:29:11.647Z,19072.00
2023-04-24T14:44:06.768Z,68960.00
2023-04-24T14:59:07.260Z,45312.00
2023-04-24T15:14:08.578Z,9240.00
2023-04-24T15:29:10.424Z,3204.00
2023-04-24T15:44:10.233Z,9260.00
2023-04-24T15:59:10.364Z,17504.00
2023-04-24T16:14:10.945Z,6236.00
2023-04-24T16:29:11.919Z,3900.00
2023-04-24T16:44:11.991Z,1692.00
2023-04-24T16:59:12.638Z,1636.00
2023-04-24T17:14:13.308Z,2836.00
2023-04-24T17:29:15.418Z,288.00
2023-04-24T17:44:15.662Z,244.00
2023-04-24T17:59:16.333Z,420.00
2023-04-24T18:14:16.593Z,320.00
2023-04-24T18:29:16.846Z,84.00
2023-04-24T18:44:17.101Z,8.00
2023-04-24T18:59:17.185Z,0.00
2023-04-24T19:14:17.287Z,0.00
2023-04-24T19:29:17.448Z,0.00
2023-04-24T19:44:17.533Z,0.00
2023-04-24T19:59:17.837Z,0.00
2023-04-24T20:14:18.148Z,0.00
2023-04-24T20:29:18.816Z,0.00
2023-04-24T20:44:18.789Z,0.00
2023-04-24T20:59:19.263Z,0.00
2023-04-24T21:14:19.350Z,0.00
2023-04-24T21:29:19.265Z,0.00
2023-04-24T21:44:19.355Z,0.00
2023-04-24T21:59:19.740Z,0.00
2023-04-24T22:14:19.990Z,0.00
2023-04-24T22:29:20.178Z,0.00
2023-04-24T22:44:20.484Z,0.00
2023-04-24T22:59:20.714Z,0.00
2023-04-24T23:14:21.958Z,0.00
2023-04-24T23:29:21.961Z,0.00
2023-04-24T23:44:21.964Z,0.00
2023-04-24T23:59:22.544Z,0.00
